Time;durP1;ratioP1;P1;durP2;ratioP2;P2;SDS_P1;SDS_P2;PMS_P1;PMS_P2;Temp;Humidity;BMP_temperature;BMP_pressure;BME280_temperature;BME280_humidity;BME280_pressure;Samples;Min_cycle;Max_cycle;Signal;HPM_P1;HPM_P2
2022/01/07 00:01:30;;;;;;;3.27;1.30;;;;;;;;;;5069283;28;20048;-74
2022/01/07 00:03:56;;;;;;;13.52;1.75;;;;;;;;;;5068915;28;20378;-74
2022/01/07 00:06:22;;;;;;;4.68;1.33;;;;;;;;;;5052056;28;20091;-74
2022/01/07 00:08:49;;;;;;;3.17;1.38;;;;;;;;;;5067808;28;20061;-74
2022/01/07 00:11:15;;;;;;;8.63;1.60;;;;;;;;;;5068489;28;20055;-74
2022/01/07 00:13:41;;;;;;;6.28;1.50;;;;;;;;;;5069762;28;20048;-75
2022/01/07 00:16:07;;;;;;;6.65;1.30;;;;;;;;;;5069152;28;20091;-74
2022/01/07 00:18:33;;;;;;;4.45;1.63;;;;;;;;;;5069781;28;20044;-74
2022/01/07 00:21:00;;;;;;;7.07;1.60;;;;;;;;;;5067878;28;21332;-74
2022/01/07 00:23:26;;;;;;;5.60;1.60;;;;;;;;;;5050989;28;20136;-74
2022/01/07 00:25:52;;;;;;;2.88;1.33;;;;;;;;;;5069277;28;20057;-74
2022/01/07 00:28:19;;;;;;;3.38;1.38;;;;;;;;;;5069640;28;20048;-74
2022/01/07 00:30:45;;;;;;;5.43;1.73;;;;;;;;;;5068752;28;20419;-73
2022/01/07 00:33:11;;;;;;;3.10;1.30;;;;;;;;;;5069392;28;20048;-73
2022/01/07 00:35:37;;;;;;;5.55;1.50;;;;;;;;;;5067311;28;20044;-73
2022/01/07 00:38:03;;;;;;;3.67;1.33;;;;;;;;;;5069309;28;20519;-73
2022/01/07 00:40:29;;;;;;;5.35;1.38;;;;;;;;;;5069164;28;20052;-74
2022/01/07 00:42:56;;;;;;;3.53;1.40;;;;;;;;;;5067818;28;20044;-74
2022/01/07 00:45:23;;;;;;;4.10;1.38;;;;;;;;;;5068967;28;20494;-75
2022/01/07 00:47:49;;;;;;;3.95;1.58;;;;;;;;;;5068059;28;20451;-74
2022/01/07 00:50:16;;;;;;;4.70;1.95;;;;;;;;;;5066975;28;20063;-74
2022/01/07 00:52:42;;;;;;;3.50;1.65;;;;;;;;;;5069281;28;20055;-74
2022/01/07 00:55:09;;;;;;;4.20;1.30;;;;;;;;;;5068710;28;20041;-75
2022/01/07 00:57:36;;;;;;;3.50;1.20;;;;;;;;;;5067875;28;20040;-75
2022/01/07 01:00:04;;;;;;;4.35;1.55;;;;;;;;;;5066988;28;20036;-75
2022/01/07 01:02:30;;;;;;;4.05;1.33;;;;;;;;;;5069205;28;20044;-75
2022/01/07 01:04:56;;;;;;;3.90;1.35;;;;;;;;;;5067566;28;20055;-75
2022/01/07 01:07:22;;;;;;;4.55;1.40;;;;;;;;;;5068868;28;20044;-75
2022/01/07 01:09:48;;;;;;;3.58;1.30;;;;;;;;;;5066784;28;20520;-74
2022/01/07 01:12:14;;;;;;;3.55;1.50;;;;;;;;;;5068838;28;20048;-74
2022/01/07 01:14:41;;;;;;;4.18;1.42;;;;;;;;;;5068216;28;20093;-74
2022/01/07 01:17:08;;;;;;;5.95;1.30;;;;;;;;;;5067808;28;20044;-74
2022/01/07 01:19:34;;;;;;;3.65;1.55;;;;;;;;;;5068252;28;20052;-74
2022/01/07 01:22:00;;;;;;;4.75;1.40;;;;;;;;;;5066115;28;20043;-74
2022/01/07 01:24:26;;;;;;;3.72;1.33;;;;;;;;;;5068032;28;20048;-75
2022/01/07 01:26:52;;;;;;;4.70;1.17;;;;;;;;;;5067748;28;20429;-74
2022/01/07 01:29:20;;;;;;;10.30;1.63;;;;;;;;;;5066137;28;20045;-73
2022/01/07 01:31:47;;;;;;;3.72;1.55;;;;;;;;;;5067627;28;20106;-73
2022/01/07 01:34:13;;;;;;;6.10;1.85;;;;;;;;;;5067002;28;20448;-73
2022/01/07 01:36:39;;;;;;;5.47;1.45;;;;;;;;;;5066537;28;20051;-75
2022/01/07 01:39:05;;;;;;;4.38;1.40;;;;;;;;;;5068149;28;20044;-74
2022/01/07 01:41:32;;;;;;;5.93;1.50;;;;;;;;;;5066412;28;20098;-74
2022/01/07 01:43:58;;;;;;;5.57;1.50;;;;;;;;;;5067734;28;20041;-74
2022/01/07 01:46:24;;;;;;;6.68;1.33;;;;;;;;;;5049731;28;20056;-74
2022/01/07 01:48:50;;;;;;;6.20;1.65;;;;;;;;;;5067841;28;20044;-74
2022/01/07 01:51:16;;;;;;;2.78;1.17;;;;;;;;;;5067692;28;20476;-74
2022/01/07 01:53:42;;;;;;;3.58;1.20;;;;;;;;;;5067465;28;20411;-74
2022/01/07 01:56:09;;;;;;;4.43;1.40;;;;;;;;;;5067089;28;20044;-73
2022/01/07 01:58:35;;;;;;;6.32;1.73;;;;;;;;;;5066573;28;20131;-74
2022/01/07 02:01:01;;;;;;;5.60;2.03;;;;;;;;;;5067470;28;20049;-73
2022/01/07 02:03:27;;;;;;;3.58;1.30;;;;;;;;;;5067853;28;20054;-74
2022/01/07 02:05:54;;;;;;;3.95;1.55;;;;;;;;;;5066142;28;20530;-74
2022/01/07 02:08:20;;;;;;;3.63;1.42;;;;;;;;;;5065611;28;20565;-75
2022/01/07 02:10:46;;;;;;;5.65;1.63;;;;;;;;;;5066106;28;20056;-75
2022/01/07 02:13:12;;;;;;;7.95;1.65;;;;;;;;;;5050036;28;20387;-75
2022/01/07 02:15:38;;;;;;;4.80;1.42;;;;;;;;;;5065821;28;20041;-75
2022/01/07 02:18:04;;;;;;;3.90;1.30;;;;;;;;;;5067547;28;20447;-76
2022/01/07 02:20:30;;;;;;;7.32;1.40;;;;;;;;;;5049068;28;20049;-76
2022/01/07 02:22:57;;;;;;;4.40;1.52;;;;;;;;;;5067271;28;20052;-74
2022/01/07 02:25:24;;;;;;;5.85;1.55;;;;;;;;;;5066108;28;20131;-74
2022/01/07 02:27:50;;;;;;;7.05;1.77;;;;;;;;;;5066250;28;20080;-74
2022/01/07 02:30:18;;;;;;;5.80;1.48;;;;;;;;;;5067496;28;20555;-74
2022/01/07 02:32:44;;;;;;;6.22;1.80;;;;;;;;;;5067888;28;20063;-74
2022/01/07 02:35:11;;;;;;;5.68;1.67;;;;;;;;;;5070922;28;20044;-75
2022/01/07 02:37:37;;;;;;;5.78;1.60;;;;;;;;;;5069699;28;20082;-75
2022/01/07 02:40:04;;;;;;;4.82;1.55;;;;;;;;;;5070554;28;20080;-75
2022/01/07 02:42:30;;;;;;;3.95;1.58;;;;;;;;;;5070759;28;20107;-75
2022/01/07 02:44:56;;;;;;;2.85;1.45;;;;;;;;;;5070400;28;20044;-75
2022/01/07 02:47:25;;;;;;;5.68;2.17;;;;;;;;;;5052499;28;20056;-75
2022/01/07 02:49:51;;;;;;;5.18;1.38;;;;;;;;;;5069391;28;20502;-76
2022/01/07 02:52:17;;;;;;;4.60;1.60;;;;;;;;;;5070010;28;20047;-76
2022/01/07 02:54:43;;;;;;;3.38;1.38;;;;;;;;;;5070701;28;20086;-76
2022/01/07 02:57:09;;;;;;;4.28;1.38;;;;;;;;;;5068893;28;20048;-76
2022/01/07 02:59:35;;;;;;;7.88;1.95;;;;;;;;;;5052714;28;20090;-77
2022/01/07 03:02:01;;;;;;;3.63;1.33;;;;;;;;;;5069944;28;20053;-77
2022/01/07 03:04:28;;;;;;;2.67;1.50;;;;;;;;;;5052983;28;20055;-76
2022/01/07 03:06:54;;;;;;;3.67;1.15;;;;;;;;;;5052710;28;20051;-76
2022/01/07 03:09:20;;;;;;;5.38;1.90;;;;;;;;;;5069073;28;20122;-76
2022/01/07 03:11:46;;;;;;;4.03;1.27;;;;;;;;;;5070510;28;20056;-74
2022/01/07 03:14:12;;;;;;;5.00;1.30;;;;;;;;;;5070679;28;20185;-76
2022/01/07 03:16:39;;;;;;;3.97;1.42;;;;;;;;;;5069948;28;20063;-75
2022/01/07 03:19:06;;;;;;;4.97;1.45;;;;;;;;;;5052575;28;20133;-76
2022/01/07 03:21:32;;;;;;;4.60;1.30;;;;;;;;;;5069082;28;20509;-75
2022/01/07 03:23:58;;;;;;;4.60;1.60;;;;;;;;;;5069895;28;20048;-75
2022/01/07 03:26:24;;;;;;;2.72;1.20;;;;;;;;;;5069217;28;20066;-75
2022/01/07 03:28:50;;;;;;;4.32;1.30;;;;;;;;;;5070112;28;20040;-75
2022/01/07 03:31:16;;;;;;;9.48;2.00;;;;;;;;;;5068638;28;20045;-75
2022/01/07 03:33:42;;;;;;;11.65;1.90;;;;;;;;;;5068384;28;20048;-76
2022/01/07 03:36:10;;;;;;;5.00;1.63;;;;;;;;;;5052130;28;20047;-76
2022/01/07 03:38:36;;;;;;;5.85;1.50;;;;;;;;;;5052288;28;20045;-76
2022/01/07 03:41:02;;;;;;;6.88;1.38;;;;;;;;;;5069962;28;20049;-74
2022/01/07 03:43:28;;;;;;;8.43;1.65;;;;;;;;;;5069702;28;20084;-75
2022/01/07 03:45:54;;;;;;;4.47;1.58;;;;;;;;;;5069710;28;20124;-75
2022/01/07 03:48:21;;;;;;;5.03;1.60;;;;;;;;;;5068127;28;20150;-75
2022/01/07 03:50:47;;;;;;;6.10;1.83;;;;;;;;;;5068457;28;20045;-75
2022/01/07 03:53:13;;;;;;;8.75;1.83;;;;;;;;;;5069603;28;20128;-75
2022/01/07 03:55:39;;;;;;;3.20;1.33;;;;;;;;;;5068935;28;20387;-75
2022/01/07 03:58:05;;;;;;;3.42;1.30;;;;;;;;;;5069115;28;20044;-75
2022/01/07 04:00:37;;;;;;;6.65;1.48;;;;;;;;;;5069371;28;20048;-75
2022/01/07 04:03:15;;;;;;;6.80;1.83;;;;;;;;;;5067978;28;20139;-75
2022/01/07 04:05:41;;;;;;;3.92;1.20;;;;;;;;;;5069316;28;20052;-75
2022/01/07 04:08:08;;;;;;;3.53;1.40;;;;;;;;;;5068629;28;20052;-75
2022/01/07 04:10:34;;;;;;;4.68;1.60;;;;;;;;;;5069356;28;20593;-75
2022/01/07 04:13:00;;;;;;;2.42;1.00;;;;;;;;;;5069041;28;20053;-75
2022/01/07 04:15:26;;;;;;;4.57;1.63;;;;;;;;;;5068192;28;20446;-76
2022/01/07 04:17:53;;;;;;;4.63;1.35;;;;;;;;;;5067795;28;20583;-76
2022/01/07 04:20:29;;;;;;;3.83;1.40;;;;;;;;;;5051252;28;20060;-75
2022/01/07 04:22:55;;;;;;;3.50;1.30;;;;;;;;;;5067951;28;20094;-76
2022/01/07 04:25:22;;;;;;;3.45;1.15;;;;;;;;;;5051446;28;20049;-76
2022/01/07 04:27:50;;;;;;;2.28;1.30;;;;;;;;;;5068387;28;20123;-76
2022/01/07 04:30:17;;;;;;;3.63;1.13;;;;;;;;;;5068581;28;20048;-75
2022/01/07 04:32:43;;;;;;;3.55;1.00;;;;;;;;;;5067858;28;20131;-76
2022/01/07 04:35:10;;;;;;;6.82;1.23;;;;;;;;;;5050838;28;20051;-76
2022/01/07 04:37:37;;;;;;;3.05;1.23;;;;;;;;;;5067664;28;20133;-76
2022/01/07 04:40:04;;;;;;;8.95;1.40;;;;;;;;;;5067435;28;20040;-76
2022/01/07 04:42:30;;;;;;;3.35;1.40;;;;;;;;;;5067594;28;20048;-77
2022/01/07 04:44:56;;;;;;;2.80;1.08;;;;;;;;;;5067478;28;20479;-76
2022/01/07 04:47:22;;;;;;;2.70;1.27;;;;;;;;;;5050969;28;20445;-76
2022/01/07 04:49:48;;;;;;;3.78;1.30;;;;;;;;;;5050863;28;20044;-76
2022/01/07 04:52:16;;;;;;;3.58;1.45;;;;;;;;;;5067720;28;20068;-76
2022/01/07 04:54:42;;;;;;;3.40;1.27;;;;;;;;;;5067218;28;20080;-76
2022/01/07 04:57:09;;;;;;;2.50;1.10;;;;;;;;;;5050630;28;20067;-76
2022/01/07 04:59:35;;;;;;;2.28;1.00;;;;;;;;;;5067298;28;20102;-77
2022/01/07 05:02:01;;;;;;;2.45;1.20;;;;;;;;;;5050709;28;20067;-77
2022/01/07 05:04:27;;;;;;;2.30;1.40;;;;;;;;;;5067314;28;20063;-76
2022/01/07 05:06:53;;;;;;;2.67;1.42;;;;;;;;;;5066743;28;20049;-76
2022/01/07 05:09:19;;;;;;;2.28;1.17;;;;;;;;;;5066880;28;20063;-76
2022/01/07 05:11:46;;;;;;;2.03;1.02;;;;;;;;;;5068463;28;20064;-74
2022/01/07 05:14:12;;;;;;;3.08;1.25;;;;;;;;;;5068399;28;20420;-74
2022/01/07 05:16:38;;;;;;;2.30;0.98;;;;;;;;;;5067961;28;20491;-76
2022/01/07 05:19:04;;;;;;;2.78;1.00;;;;;;;;;;5068001;28;20101;-75
2022/01/07 05:21:31;;;;;;;6.25;0.90;;;;;;;;;;5067122;28;20053;-75
2022/01/07 05:23:57;;;;;;;2.42;1.08;;;;;;;;;;5068440;28;20044;-75
2022/01/07 05:26:23;;;;;;;4.40;1.00;;;;;;;;;;5066560;28;20466;-76
2022/01/07 05:28:52;;;;;;;3.13;1.17;;;;;;;;;;5066956;28;20048;-75
2022/01/07 05:31:19;;;;;;;2.72;1.23;;;;;;;;;;5067160;28;20195;-75
2022/01/07 05:33:45;;;;;;;3.03;1.40;;;;;;;;;;5068098;28;20045;-76
2022/01/07 05:36:11;;;;;;;3.38;1.00;;;;;;;;;;5049955;28;20052;-75
2022/01/07 05:38:37;;;;;;;3.35;1.20;;;;;;;;;;5068286;28;20037;-75
2022/01/07 05:41:03;;;;;;;2.63;1.10;;;;;;;;;;5067567;28;20490;-74
2022/01/07 05:43:30;;;;;;;9.45;1.58;;;;;;;;;;5066630;28;20071;-74
2022/01/07 05:45:57;;;;;;;6.32;1.67;;;;;;;;;;5067281;28;20060;-75
2022/01/07 05:48:23;;;;;;;6.75;1.52;;;;;;;;;;5067443;28;20040;-75
2022/01/07 05:50:49;;;;;;;4.82;1.20;;;;;;;;;;5068132;28;20514;-75
2022/01/07 05:53:16;;;;;;;2.15;0.90;;;;;;;;;;5067334;28;20044;-75
2022/01/07 05:55:42;;;;;;;5.68;1.75;;;;;;;;;;5068733;28;20133;-75
2022/01/07 05:58:08;;;;;;;3.38;0.85;;;;;;;;;;5067263;28;20059;-74
2022/01/07 06:00:34;;;;;;;6.97;1.25;;;;;;;;;;5068102;28;20045;-75
2022/01/07 06:03:00;;;;;;;3.85;1.20;;;;;;;;;;5066909;28;20051;-75
2022/01/07 06:05:27;;;;;;;2.85;1.05;;;;;;;;;;5066985;28;20052;-75
2022/01/07 06:07:53;;;;;;;2.53;1.00;;;;;;;;;;5069928;28;20109;-75
2022/01/07 06:10:19;;;;;;;3.20;1.30;;;;;;;;;;5070812;28;20147;-74
2022/01/07 06:12:45;;;;;;;2.08;1.10;;;;;;;;;;5071074;28;20050;-75
2022/01/07 06:15:11;;;;;;;2.80;1.25;;;;;;;;;;5070967;28;20044;-75
2022/01/07 06:17:37;;;;;;;3.58;1.40;;;;;;;;;;5071139;28;20123;-75
2022/01/07 06:20:07;;;;;;;8.07;1.10;;;;;;;;;;5071777;28;20417;-74
2022/01/07 06:22:34;;;;;;;3.35;1.10;;;;;;;;;;5072118;28;20094;-74
2022/01/07 06:25:00;;;;;;;2.00;1.00;;;;;;;;;;5070605;28;20052;-74
2022/01/07 06:27:26;;;;;;;2.00;0.95;;;;;;;;;;5071096;28;20061;-74
2022/01/07 06:29:52;;;;;;;2.95;1.00;;;;;;;;;;5070724;28;20047;-74
2022/01/07 06:32:18;;;;;;;4.82;1.00;;;;;;;;;;5070051;28;20075;-75
2022/01/07 06:34:44;;;;;;;2.33;1.15;;;;;;;;;;5054165;28;20067;-75
2022/01/07 06:37:12;;;;;;;2.90;1.02;;;;;;;;;;5072182;28;20529;-75
2022/01/07 06:39:38;;;;;;;1.90;1.02;;;;;;;;;;5070495;28;20056;-75
2022/01/07 06:42:04;;;;;;;1.50;0.90;;;;;;;;;;5071561;28;20151;-75
2022/01/07 06:44:30;;;;;;;3.90;1.17;;;;;;;;;;5071871;28;20052;-75
2022/01/07 06:46:56;;;;;;;2.67;1.10;;;;;;;;;;5071926;28;20040;-75
2022/01/07 06:49:22;;;;;;;1.50;0.80;;;;;;;;;;5071412;28;20498;-75
2022/01/07 06:51:50;;;;;;;3.35;0.95;;;;;;;;;;5071341;28;20048;-75
2022/01/07 06:54:16;;;;;;;2.63;1.00;;;;;;;;;;5070493;28;20106;-74
2022/01/07 06:56:43;;;;;;;2.92;1.00;;;;;;;;;;5070160;28;20040;-70
2022/01/07 06:59:09;;;;;;;2.47;1.10;;;;;;;;;;5071426;28;20190;-74
2022/01/07 07:01:35;;;;;;;2.30;1.13;;;;;;;;;;5071680;28;20044;-74
2022/01/07 07:04:01;;;;;;;2.60;0.95;;;;;;;;;;5052897;28;20049;-73
2022/01/07 07:06:28;;;;;;;2.15;1.10;;;;;;;;;;5071175;28;20048;-74
2022/01/07 07:08:54;;;;;;;2.63;1.00;;;;;;;;;;5071015;28;20430;-75
2022/01/07 07:11:20;;;;;;;3.58;0.85;;;;;;;;;;5071198;28;20066;-75
2022/01/07 07:13:46;;;;;;;2.88;1.42;;;;;;;;;;5071087;28;20482;-74
2022/01/07 07:16:12;;;;;;;2.40;1.00;;;;;;;;;;5069935;28;20078;-75
2022/01/07 07:18:38;;;;;;;2.08;1.00;;;;;;;;;;5070431;28;20051;-75
2022/01/07 07:21:04;;;;;;;3.75;1.25;;;;;;;;;;5069741;28;20494;-75
2022/01/07 07:23:30;;;;;;;2.33;1.25;;;;;;;;;;5052619;28;20056;-74
2022/01/07 07:25:56;;;;;;;3.35;1.10;;;;;;;;;;5069746;28;20067;-73
2022/01/07 07:28:22;;;;;;;4.20;1.27;;;;;;;;;;5068909;28;20049;-74
2022/01/07 07:30:50;;;;;;;3.60;1.00;;;;;;;;;;5052371;28;20054;-74
2022/01/07 07:38:36;;;;;;;2.13;0.98;;;;;;;;;;5070158;28;20139;-73
2022/01/07 07:41:03;;;;;;;3.03;0.93;;;;;;;;;;5069680;28;20052;-74
2022/01/07 07:43:29;;;;;;;1.60;0.85;;;;;;;;;;5069801;28;20094;-73
2022/01/07 07:45:55;;;;;;;2.63;1.20;;;;;;;;;;5068459;28;20429;-74
2022/01/07 07:48:21;;;;;;;2.38;1.02;;;;;;;;;;5069891;28;20051;-74
2022/01/07 07:50:47;;;;;;;3.60;1.00;;;;;;;;;;5069336;28;20044;-74
2022/01/07 07:53:13;;;;;;;2.08;0.80;;;;;;;;;;5051658;28;20139;-73
2022/01/07 07:55:39;;;;;;;1.77;0.80;;;;;;;;;;5068850;28;20052;-73
2022/01/07 07:58:05;;;;;;;2.63;1.00;;;;;;;;;;5070119;28;20043;-73
2022/01/07 08:00:32;;;;;;;1.60;0.88;;;;;;;;;;5070397;28;20128;-73
2022/01/07 08:02:58;;;;;;;2.88;0.90;;;;;;;;;;5070233;28;20071;-73
2022/01/07 08:05:24;;;;;;;4.10;0.93;;;;;;;;;;5069390;28;20400;-74
2022/01/07 08:07:51;;;;;;;2.45;0.90;;;;;;;;;;5069887;28;20084;-74
2022/01/07 08:10:23;;;;;;;2.13;1.00;;;;;;;;;;5069714;28;20059;-75
2022/01/07 08:18:23;;;;;;;2.07;0.80;;;;;;;;;;5068690;28;20056;-73
2022/01/07 08:20:50;;;;;;;5.68;1.23;;;;;;;;;;5068927;28;20098;-73
2022/01/07 08:23:16;;;;;;;3.92;1.30;;;;;;;;;;5068499;28;20049;-72
2022/01/07 08:25:42;;;;;;;3.85;1.10;;;;;;;;;;5069495;28;20573;-72
2022/01/07 08:28:09;;;;;;;2.38;0.90;;;;;;;;;;5068320;28;20044;-71
2022/01/07 08:30:37;;;;;;;1.52;0.90;;;;;;;;;;5069108;28;20425;-72
2022/01/07 08:35:52;;;;;;;8.48;1.50;;;;;;;;;;5069828;28;20052;-71
2022/01/07 08:38:18;;;;;;;1.38;0.63;;;;;;;;;;5068270;28;20128;-72
2022/01/07 08:40:44;;;;;;;2.70;1.27;;;;;;;;;;5068288;28;20036;-72
2022/01/07 08:43:10;;;;;;;2.08;0.90;;;;;;;;;;5068362;28;20040;-71
2022/01/07 08:45:36;;;;;;;2.63;0.95;;;;;;;;;;5067641;28;20049;-72
2022/01/07 08:48:02;;;;;;;2.30;1.10;;;;;;;;;;5069501;28;20098;-72
2022/01/07 08:50:28;;;;;;;2.83;1.20;;;;;;;;;;5069544;28;20048;-71
2022/01/07 08:52:56;;;;;;;2.97;1.15;;;;;;;;;;5069109;28;20056;-71
2022/01/07 08:55:22;;;;;;;2.85;1.08;;;;;;;;;;5069084;28;20546;-73
2022/01/07 08:57:48;;;;;;;3.55;1.30;;;;;;;;;;5069686;28;20041;-71
2022/01/07 09:00:14;;;;;;;2.08;1.10;;;;;;;;;;5068394;28;20040;-72
2022/01/07 09:02:40;;;;;;;1.92;1.10;;;;;;;;;;5051412;28;20040;-71
2022/01/07 09:05:06;;;;;;;2.70;1.13;;;;;;;;;;5064205;28;20096;-71
2022/01/07 09:07:34;;;;;;;3.13;1.10;;;;;;;;;;5062185;28;20585;-73
2022/01/07 09:10:00;;;;;;;2.20;0.93;;;;;;;;;;5050418;28;20057;-73
2022/01/07 09:12:26;;;;;;;2.25;1.00;;;;;;;;;;5050909;28;20083;-74
2022/01/07 09:14:52;;;;;;;2.92;1.05;;;;;;;;;;5073964;28;20044;-72
2022/01/07 09:17:18;;;;;;;2.60;1.00;;;;;;;;;;5083153;28;20097;-73
2022/01/07 09:19:44;;;;;;;2.78;1.08;;;;;;;;;;5084351;28;20048;-73
2022/01/07 09:22:10;;;;;;;2.22;0.85;;;;;;;;;;5087393;28;20114;-72
2022/01/07 09:24:36;;;;;;;2.00;1.00;;;;;;;;;;5088149;28;20136;-73
2022/01/07 09:27:03;;;;;;;2.60;1.00;;;;;;;;;;5070903;28;20054;-72
2022/01/07 09:29:29;;;;;;;3.15;1.20;;;;;;;;;;5087479;28;20044;-72
2022/01/07 09:31:55;;;;;;;3.10;1.23;;;;;;;;;;5087502;28;20040;-70
2022/01/07 09:34:22;;;;;;;3.13;1.08;;;;;;;;;;5088527;28;20403;-71
2022/01/07 09:36:48;;;;;;;4.05;1.05;;;;;;;;;;5089305;28;20040;-71
2022/01/07 09:39:14;;;;;;;3.22;1.27;;;;;;;;;;5088499;28;20401;-72
2022/01/07 09:41:40;;;;;;;2.97;1.30;;;;;;;;;;5072225;28;20160;-72
2022/01/07 09:44:15;;;;;;;2.40;0.98;;;;;;;;;;5093433;28;20047;-73
2022/01/07 09:46:42;;;;;;;3.05;1.10;;;;;;;;;;5081545;28;20097;-71
2022/01/07 09:49:08;;;;;;;2.17;1.05;;;;;;;;;;5058950;28;20041;-72
2022/01/07 09:51:36;;;;;;;1.90;1.00;;;;;;;;;;5051633;28;20124;-72
2022/01/07 09:54:04;;;;;;;2.20;1.30;;;;;;;;;;5065152;28;20055;-71
2022/01/07 09:56:30;;;;;;;3.28;1.88;;;;;;;;;;5093569;28;20135;-72
2022/01/07 09:58:56;;;;;;;3.53;1.35;;;;;;;;;;5091685;28;20040;-71
2022/01/07 10:01:25;;;;;;;3.25;1.10;;;;;;;;;;5092958;28;20680;-71
2022/01/07 10:03:51;;;;;;;3.47;1.27;;;;;;;;;;5093432;28;20127;-71
2022/01/07 10:06:35;;;;;;;4.78;1.13;;;;;;;;;;5091652;28;20131;-72
2022/01/07 10:09:13;;;;;;;2.83;1.23;;;;;;;;;;5086472;28;20054;-72
2022/01/07 10:11:39;;;;;;;1.75;1.15;;;;;;;;;;5091514;28;20055;-72
2022/01/07 10:14:22;;;;;;;2.10;1.15;;;;;;;;;;5090026;28;20080;-71
2022/01/07 10:16:52;;;;;;;3.53;1.30;;;;;;;;;;5055730;28;20406;-72
2022/01/07 10:19:34;;;;;;;4.07;1.40;;;;;;;;;;5077360;28;20116;-71
2022/01/07 10:22:01;;;;;;;3.35;1.50;;;;;;;;;;5034259;28;20041;-71
2022/01/07 10:24:27;;;;;;;2.47;1.35;;;;;;;;;;5050173;28;20048;-71
2022/01/07 10:27:12;;;;;;;2.65;1.20;;;;;;;;;;5051909;28;20048;-70
2022/01/07 10:29:39;;;;;;;2.85;1.30;;;;;;;;;;5052218;28;20049;-72
2022/01/07 10:32:22;;;;;;;3.67;1.73;;;;;;;;;;5074829;28;20045;-71
2022/01/07 10:35:01;;;;;;;3.67;1.45;;;;;;;;;;5069993;28;20036;-72
2022/01/07 10:44:08;;;;;;;3.20;1.30;;;;;;;;;;5354896;23;22242;-77
2022/01/07 10:46:37;;;;;;;3.95;1.45;;;;;;;;;;4974039;23;20055;-74
2022/01/07 10:49:04;;;;;;;3.33;1.40;;;;;;;;;;4989847;28;20104;-72
2022/01/07 10:51:38;;;;;;;3.47;1.40;;;;;;;;;;4991463;28;20050;-71
2022/01/07 10:54:06;;;;;;;2.47;1.25;;;;;;;;;;4979304;28;20050;-72
2022/01/07 10:56:32;;;;;;;4.28;1.40;;;;;;;;;;4973357;28;20054;-73
2022/01/07 10:59:07;;;;;;;2.45;1.27;;;;;;;;;;4973470;28;20043;-73
2022/01/07 11:01:33;;;;;;;3.35;1.23;;;;;;;;;;4971316;28;20047;-73
2022/01/07 11:04:00;;;;;;;2.88;1.20;;;;;;;;;;4970771;28;20117;-71
2022/01/07 11:06:27;;;;;;;4.32;1.30;;;;;;;;;;4987543;28;20050;-74
2022/01/07 11:08:54;;;;;;;2.30;1.10;;;;;;;;;;4991774;28;20550;-74
2022/01/07 11:11:21;;;;;;;2.63;1.70;;;;;;;;;;4991827;28;20054;-75
2022/01/07 11:13:47;;;;;;;1.67;1.10;;;;;;;;;;4990698;28;20050;-74
2022/01/07 11:16:13;;;;;;;4.60;1.40;;;;;;;;;;4974129;28;20050;-74
2022/01/07 11:18:40;;;;;;;2.53;0.98;;;;;;;;;;4990902;28;20096;-74
2022/01/07 11:21:06;;;;;;;3.17;1.27;;;;;;;;;;4990245;28;20054;-74
2022/01/07 11:23:34;;;;;;;4.10;1.20;;;;;;;;;;4991689;28;20046;-72
2022/01/07 11:26:01;;;;;;;2.55;1.08;;;;;;;;;;4990103;28;20081;-73
2022/01/07 11:28:27;;;;;;;2.35;0.90;;;;;;;;;;4972079;28;20070;-74
2022/01/07 11:31:03;;;;;;;2.90;1.20;;;;;;;;;;4984641;28;20657;-74
2022/01/07 11:33:30;;;;;;;2.45;1.20;;;;;;;;;;4990378;28;20109;-74
2022/01/07 11:35:56;;;;;;;2.55;0.98;;;;;;;;;;4976720;28;20456;-75
2022/01/07 11:38:35;;;;;;;2.13;0.90;;;;;;;;;;4979381;28;20133;-72
2022/01/07 11:41:02;;;;;;;1.92;0.80;;;;;;;;;;4971829;28;20049;-73
2022/01/07 11:43:37;;;;;;;2.47;1.10;;;;;;;;;;4970526;28;20054;-73
2022/01/07 11:46:23;;;;;;;1.77;0.93;;;;;;;;;;4970138;28;20063;-74
2022/01/07 11:48:50;;;;;;;2.13;0.90;;;;;;;;;;4970740;28;20509;-75
2022/01/07 11:51:16;;;;;;;2.17;0.90;;;;;;;;;;4974775;28;20054;-74
2022/01/07 11:53:42;;;;;;;2.72;1.00;;;;;;;;;;4989844;28;20523;-72
2022/01/07 11:56:09;;;;;;;2.13;1.20;;;;;;;;;;4974957;28;20652;-74
2022/01/07 11:58:42;;;;;;;2.80;1.05;;;;;;;;;;4970928;28;20580;-74
2022/01/07 12:01:23;;;;;;;2.33;0.88;;;;;;;;;;4969258;28;20051;-74
2022/01/07 12:03:49;;;;;;;4.82;1.05;;;;;;;;;;4970603;28;20113;-72
2022/01/07 12:06:19;;;;;;;3.72;1.10;;;;;;;;;;4971354;28;20042;-79
2022/01/07 12:08:57;;;;;;;1.38;0.77;;;;;;;;;;4970100;28;20050;-72
2022/01/07 12:11:24;;;;;;;3.22;1.17;;;;;;;;;;4969819;28;20049;-74
2022/01/07 12:13:50;;;;;;;1.73;1.00;;;;;;;;;;4971224;28;20043;-73
2022/01/07 12:16:22;;;;;;;2.25;0.80;;;;;;;;;;4969922;28;20464;-75
2022/01/07 12:18:48;;;;;;;2.90;1.10;;;;;;;;;;4968860;28;20477;-73
2022/01/07 12:21:14;;;;;;;2.47;1.00;;;;;;;;;;4971184;28;20050;-74
2022/01/07 12:23:42;;;;;;;2.30;1.10;;;;;;;;;;4953146;28;20134;-74
2022/01/07 12:26:08;;;;;;;2.92;1.10;;;;;;;;;;4953124;28;20141;-74
2022/01/07 12:28:42;;;;;;;1.90;1.00;;;;;;;;;;4971295;28;20051;-74
2022/01/07 12:31:10;;;;;;;4.28;1.40;;;;;;;;;;4953953;28;20311;-74
2022/01/07 12:33:39;;;;;;;2.30;0.90;;;;;;;;;;4974353;28;20050;-74
2022/01/07 12:36:05;;;;;;;2.42;1.10;;;;;;;;;;4989510;28;20046;-75
2022/01/07 12:38:31;;;;;;;2.53;1.02;;;;;;;;;;4982067;28;20094;-75
2022/01/07 12:41:00;;;;;;;3.05;1.02;;;;;;;;;;4970842;28;20047;-75
2022/01/07 12:43:30;;;;;;;4.47;1.23;;;;;;;;;;4969513;28;20059;-74
2022/01/07 12:46:04;;;;;;;1.80;0.90;;;;;;;;;;4969202;28;20054;-71
2022/01/07 12:48:38;;;;;;;3.13;1.10;;;;;;;;;;4970328;28;20133;-75
2022/01/07 12:51:05;;;;;;;3.00;1.10;;;;;;;;;;4970631;28;20452;-71
2022/01/07 12:53:32;;;;;;;2.53;1.00;;;;;;;;;;4970609;28;20099;-73
2022/01/07 12:56:19;;;;;;;2.30;1.15;;;;;;;;;;4969416;28;20043;-72
2022/01/07 12:58:45;;;;;;;2.00;0.90;;;;;;;;;;4959970;28;20082;-73
2022/01/07 13:01:21;;;;;;;2.63;1.02;;;;;;;;;;4970597;28;20105;-71
2022/01/07 13:03:47;;;;;;;3.33;1.27;;;;;;;;;;4968998;28;20055;-73
2022/01/07 13:06:13;;;;;;;2.20;1.05;;;;;;;;;;4970086;28;20515;-73
2022/01/07 13:08:39;;;;;;;1.98;0.90;;;;;;;;;;4969404;28;20560;-73
2022/01/07 13:11:05;;;;;;;2.80;0.82;;;;;;;;;;4969319;28;20053;-71
2022/01/07 13:13:31;;;;;;;2.60;1.10;;;;;;;;;;4971186;28;20408;-71
2022/01/07 13:15:58;;;;;;;4.13;1.25;;;;;;;;;;4967233;28;20043;-73
2022/01/07 13:18:40;;;;;;;1.88;1.00;;;;;;;;;;4971327;28;20043;-73
2022/01/07 13:21:06;;;;;;;2.05;1.00;;;;;;;;;;4970884;28;20808;-75
2022/01/07 13:23:41;;;;;;;2.22;1.00;;;;;;;;;;4971169;28;20114;-74
2022/01/07 13:26:09;;;;;;;2.22;1.02;;;;;;;;;;4970957;28;20053;-75
2022/01/07 13:28:45;;;;;;;1.27;0.98;;;;;;;;;;4971168;28;20440;-75
2022/01/07 13:31:12;;;;;;;3.70;1.20;;;;;;;;;;4970230;28;20051;-77
2022/01/07 13:33:40;;;;;;;2.83;1.10;;;;;;;;;;4969277;28;20074;-78
2022/01/07 13:36:07;;;;;;;3.10;1.00;;;;;;;;;;4970379;28;20043;-76
2022/01/07 13:38:34;;;;;;;3.00;0.70;;;;;;;;;;4970727;28;20397;-74
2022/01/07 13:41:06;;;;;;;2.45;1.00;;;;;;;;;;4968835;28;20440;-77
2022/01/07 13:43:33;;;;;;;3.08;1.23;;;;;;;;;;4968171;28;20047;-78
2022/01/07 13:46:13;;;;;;;3.95;1.30;;;;;;;;;;4956421;28;20046;-76
2022/01/07 13:48:48;;;;;;;4.82;1.10;;;;;;;;;;4967551;28;20090;-74
2022/01/07 13:51:14;;;;;;;3.40;1.10;;;;;;;;;;4966982;28;20108;-74
2022/01/07 13:53:40;;;;;;;4.10;1.25;;;;;;;;;;4969137;28;20444;-74
2022/01/07 13:56:07;;;;;;;2.45;0.90;;;;;;;;;;4968036;28;20042;-73
2022/01/07 13:58:33;;;;;;;3.58;1.15;;;;;;;;;;4968464;28;20535;-74
2022/01/07 14:01:06;;;;;;;4.07;0.95;;;;;;;;;;4967480;28;20403;-74
2022/01/07 14:03:48;;;;;;;4.43;1.50;;;;;;;;;;4952935;28;20134;-74
2022/01/07 14:06:17;;;;;;;2.80;1.33;;;;;;;;;;4968221;28;20114;-74
2022/01/07 14:08:43;;;;;;;3.53;1.13;;;;;;;;;;4968526;28;20047;-74
2022/01/07 14:11:16;;;;;;;3.53;0.93;;;;;;;;;;4968348;28;20047;-74
2022/01/07 14:13:43;;;;;;;3.15;1.20;;;;;;;;;;4967521;28;20090;-73
2022/01/07 14:16:21;;;;;;;3.10;1.23;;;;;;;;;;4967494;28;20046;-74
2022/01/07 14:18:58;;;;;;;2.38;0.90;;;;;;;;;;4967863;28;20093;-75
2022/01/07 14:21:24;;;;;;;2.60;1.10;;;;;;;;;;4965770;28;20394;-75
2022/01/07 14:23:50;;;;;;;2.90;1.00;;;;;;;;;;4966473;28;20496;-75
2022/01/07 14:26:17;;;;;;;2.22;1.00;;;;;;;;;;4966186;28;20090;-76
2022/01/07 14:28:45;;;;;;;3.25;1.00;;;;;;;;;;4968605;28;20046;-75
2022/01/07 14:31:13;;;;;;;4.13;1.55;;;;;;;;;;4971069;28;20126;-75
2022/01/07 14:33:41;;;;;;;3.25;0.93;;;;;;;;;;4971034;28;20062;-75
2022/01/07 14:36:08;;;;;;;3.05;1.15;;;;;;;;;;4970994;28;20678;-75
2022/01/07 14:38:34;;;;;;;4.43;1.52;;;;;;;;;;4970724;28;20049;-74
2022/01/07 14:41:00;;;;;;;1.83;0.93;;;;;;;;;;4970546;28;20097;-75
2022/01/07 14:43:26;;;;;;;2.10;1.00;;;;;;;;;;4971330;28;20138;-74
2022/01/07 14:45:52;;;;;;;2.22;0.88;;;;;;;;;;4971029;28;20079;-73
2022/01/07 14:48:18;;;;;;;2.92;0.85;;;;;;;;;;4971474;28;20460;-74
2022/01/07 14:50:44;;;;;;;9.38;1.77;;;;;;;;;;4970410;28;20046;-75
2022/01/07 14:53:11;;;;;;;3.95;1.23;;;;;;;;;;4969410;28;20046;-74
2022/01/07 14:55:37;;;;;;;4.30;1.02;;;;;;;;;;4970498;28;20058;-75
2022/01/07 14:58:07;;;;;;;3.35;1.10;;;;;;;;;;4969028;28;20054;-74
2022/01/07 15:00:34;;;;;;;3.75;1.05;;;;;;;;;;4967010;28;20469;-75
2022/01/07 15:03:00;;;;;;;3.47;1.02;;;;;;;;;;4969220;28;20082;-75
2022/01/07 15:05:26;;;;;;;3.42;1.00;;;;;;;;;;4970737;28;20303;-75